createdAt,value
2019-05-14T00:00:41.638Z,99.90
2019-05-14T00:03:14.960Z,99.90
2019-05-14T00:05:46.440Z,99.90
2019-05-14T00:08:18.252Z,99.90
2019-05-14T00:10:51.808Z,99.90
2019-05-14T00:13:23.011Z,99.90
2019-05-14T00:15:54.893Z,99.90
2019-05-14T00:20:57.387Z,99.90
2019-05-14T00:23:31.703Z,99.90
2019-05-14T00:26:03.113Z,99.90
2019-05-14T00:28:34.557Z,99.90
2019-05-14T00:31:06.419Z,99.90
2019-05-14T00:33:38.224Z,99.90
2019-05-14T00:36:11.260Z,99.90
2019-05-14T00:38:43.240Z,99.90
2019-05-14T00:41:15.591Z,99.90
2019-05-14T00:43:47.227Z,99.90
2019-05-14T00:46:21.053Z,99.90
2019-05-14T00:48:52.759Z,99.90
2019-05-14T00:51:24.613Z,99.90
2019-05-14T00:53:56.742Z,99.90
2019-05-14T00:56:28.444Z,99.90
2019-05-14T00:59:01.390Z,99.90
2019-05-14T02:01:58.032Z,99.90
2019-05-14T02:04:31.639Z,99.90
2019-05-14T02:07:02.516Z,99.90
2019-05-14T02:09:34.446Z,99.90
2019-05-14T02:12:05.259Z,99.90
2019-05-14T02:14:36.859Z,99.90
2019-05-14T02:17:08.399Z,99.90
2019-05-14T02:19:42.566Z,99.90
2019-05-14T02:22:15.037Z,99.90
2019-05-14T02:24:45.798Z,99.90
2019-05-14T02:27:16.577Z,99.90
2019-05-14T02:29:48.327Z,99.90
2019-05-14T02:32:19.622Z,99.90
2019-05-14T02:34:51.910Z,99.90
2019-05-14T02:37:23.234Z,99.90
2019-05-14T02:39:53.717Z,99.90
2019-05-14T02:42:28.669Z,99.90
2019-05-14T02:44:59.260Z,99.90
2019-05-14T02:47:30.295Z,99.90
2019-05-14T02:50:01.121Z,99.90
2019-05-14T02:52:31.684Z,99.90
2019-05-14T02:55:02.596Z,99.90
2019-05-14T02:57:33.716Z,99.90
2019-05-14T03:00:09.801Z,99.90
2019-05-14T03:02:40.272Z,99.90
2019-05-14T03:05:13.010Z,99.90
2019-05-14T03:07:43.812Z,99.90
2019-05-14T03:10:15.223Z,99.90
2019-05-14T03:12:49.217Z,99.90
2019-05-14T03:15:21.011Z,99.90
2019-05-14T03:17:52.341Z,99.90
2019-05-14T03:20:23.686Z,99.90
2019-05-14T03:23:02.972Z,99.90
2019-05-14T03:25:30.037Z,99.90
2019-05-14T03:28:01.417Z,99.90
2019-05-14T03:30:33.305Z,99.90
2019-05-14T03:33:04.472Z,99.90
2019-05-14T03:35:44.510Z,99.90
2019-05-14T03:38:09.439Z,99.90
2019-05-14T03:40:41.707Z,99.90
2019-05-14T03:43:12.888Z,99.90
2019-05-14T03:45:44.344Z,99.90
2019-05-14T03:48:19.074Z,99.90
2019-05-14T03:50:49.737Z,99.90
2019-05-14T03:53:20.649Z,99.90
2019-05-14T03:55:51.542Z,99.90
2019-05-14T03:58:23.976Z,99.90
2019-05-14T04:01:01.926Z,99.90
2019-05-14T04:03:33.152Z,99.90
2019-05-14T04:06:04.304Z,99.90
2019-05-14T04:08:39.243Z,99.90
2019-05-14T04:11:11.439Z,99.90
2019-05-14T04:13:44.023Z,99.90
2019-05-14T04:16:16.163Z,99.90
2019-05-14T04:18:50.489Z,99.90
2019-05-14T04:21:22.365Z,99.90
2019-05-14T04:23:55.422Z,99.90
2019-05-14T04:26:30.282Z,99.90
2019-05-14T04:29:01.772Z,99.90
2019-05-14T04:31:33.895Z,99.90
2019-05-14T04:34:04.641Z,99.90
2019-05-14T04:36:39.008Z,99.90
2019-05-14T04:39:09.526Z,99.90
2019-05-14T04:41:41.266Z,99.90
2019-05-14T04:44:12.379Z,99.90
2019-05-14T04:46:43.714Z,99.90
2019-05-14T04:49:14.707Z,99.90
2019-05-14T04:51:46.217Z,99.90
2019-05-14T04:54:19.410Z,99.90
2019-05-14T04:56:50.994Z,99.90
2019-05-14T04:59:23.303Z,99.90
2019-05-14T05:01:54.675Z,99.90
2019-05-14T05:04:29.620Z,99.90
2019-05-14T05:06:59.400Z,99.90
2019-05-14T05:09:31.753Z,99.90
2019-05-14T05:12:03.052Z,99.90
2019-05-14T05:14:34.158Z,99.90
2019-05-14T05:17:08.875Z,99.90
2019-05-14T05:19:44.317Z,99.90
2019-05-14T05:22:12.545Z,99.90
2019-05-14T05:24:43.671Z,99.90
2019-05-14T05:27:14.792Z,99.90
2019-05-14T05:29:48.387Z,99.90
2019-05-14T05:32:20.176Z,99.90
2019-05-14T05:34:51.006Z,99.90
2019-05-14T05:37:21.810Z,99.90
2019-05-14T05:39:52.849Z,99.90
2019-05-14T05:42:23.986Z,99.90
2019-05-14T05:44:55.751Z,99.90
2019-05-14T05:47:28.692Z,99.90
2019-05-14T05:50:00.400Z,99.90
2019-05-14T05:52:31.847Z,99.90
2019-05-14T05:55:03.345Z,99.90
2019-05-14T06:00:06.490Z,99.90
2019-05-14T06:02:39.601Z,99.90
2019-05-14T06:05:23.357Z,99.90
2019-05-14T06:07:53.855Z,99.90
2019-05-14T06:10:25.337Z,99.90
2019-05-14T06:12:58.386Z,99.90
2019-05-14T06:15:43.872Z,99.90
2019-05-14T06:18:14.070Z,99.90
2019-05-14T06:20:34.325Z,99.90
2019-05-14T06:23:08.279Z,99.90
2019-05-14T06:25:39.988Z,99.90
2019-05-14T06:28:11.452Z,99.90
2019-05-14T06:30:43.265Z,99.90
2019-05-14T06:33:14.723Z,99.90
2019-05-14T06:35:48.383Z,99.90
2019-05-14T06:38:18.691Z,99.90
2019-05-14T06:40:49.683Z,99.90
2019-05-14T06:43:20.528Z,99.90
2019-05-14T07:53:39.686Z,99.90
2019-05-14T07:56:09.469Z,99.90
2019-05-14T08:03:41.997Z,99.90
2019-05-14T08:06:12.807Z,99.90
2019-05-14T08:08:44.182Z,99.90
2019-05-14T08:11:15.646Z,99.90
2019-05-14T08:13:49.347Z,98.80
2019-05-14T08:16:19.905Z,99.90
2019-05-14T08:18:50.952Z,99.90
2019-05-14T08:21:23.312Z,99.10
2019-05-14T08:23:54.445Z,99.10
2019-05-14T08:26:26.306Z,92.70
2019-05-14T08:28:58.124Z,91.90
2019-05-14T08:31:29.555Z,91.10
2019-05-14T08:34:04.626Z,90.80
2019-05-14T08:36:34.419Z,93.00
2019-05-14T08:39:08.846Z,89.00
2019-05-14T08:41:40.167Z,91.50
2019-05-14T08:44:12.008Z,86.80
2019-05-14T08:46:45.138Z,90.60
2019-05-14T08:49:18.262Z,86.00
2019-05-14T08:51:49.473Z,86.70
2019-05-14T08:54:21.074Z,86.60
2019-05-14T08:56:53.279Z,82.90
2019-05-14T08:59:24.752Z,82.90
2019-05-14T09:02:05.508Z,83.80
2019-05-14T09:04:30.452Z,85.40
2019-05-14T09:07:03.200Z,80.10
2019-05-14T09:09:34.559Z,81.20
2019-05-14T09:12:12.074Z,80.50
2019-05-14T09:14:39.120Z,76.30
2019-05-14T09:17:14.543Z,75.80
2019-05-14T09:19:57.723Z,71.80
2019-05-14T09:22:18.526Z,69.80
2019-05-14T09:24:49.335Z,70.20
2019-05-14T12:08:11.940Z,75.40
2019-05-14T12:10:43.223Z,57.20
2019-05-14T12:13:14.933Z,55.10
2019-05-14T12:15:48.554Z,55.30
2019-05-14T12:18:20.061Z,55.90
2019-05-14T12:20:50.984Z,55.30
2019-05-14T12:23:22.783Z,53.40
2019-05-14T12:25:54.466Z,54.80
2019-05-14T12:28:25.753Z,55.10
2019-05-14T12:30:58.475Z,54.50
2019-05-14T12:33:31.439Z,55.40
2019-05-14T12:36:03.017Z,54.00
2019-05-14T12:38:34.056Z,57.80
2019-05-14T12:41:08.915Z,56.20
2019-05-14T12:43:40.193Z,54.60
2019-05-14T12:46:12.193Z,53.30
2019-05-14T12:48:43.173Z,53.00
2019-05-14T12:51:14.555Z,53.30
2019-05-14T12:53:48.585Z,54.80
2019-05-14T12:56:19.084Z,53.60
2019-05-14T12:58:51.799Z,53.20
2019-05-14T13:01:22.857Z,53.50
2019-05-14T13:03:55.153Z,53.60
2019-05-14T13:06:29.112Z,53.30
2019-05-14T13:08:59.751Z,70.60
2019-05-14T13:11:31.225Z,58.20
2019-05-14T13:14:02.808Z,53.90
2019-05-14T13:16:34.258Z,55.30
2019-05-14T13:19:18.988Z,53.60
2019-05-14T13:22:08.700Z,52.80
2019-05-14T13:24:24.901Z,53.70
2019-05-14T13:26:58.615Z,53.80
2019-05-14T13:29:29.458Z,53.80
2019-05-14T13:32:00.577Z,54.00
2019-05-14T13:34:32.189Z,54.40
2019-05-14T13:37:04.699Z,54.70
2019-05-14T13:39:39.590Z,54.80
2019-05-14T13:42:12.061Z,52.20
2019-05-14T13:44:42.947Z,53.90
2019-05-14T13:47:14.380Z,51.90
2019-05-14T13:49:48.475Z,50.60
2019-05-14T13:52:19.618Z,51.20
2019-05-14T13:54:51.106Z,51.90
2019-05-14T13:57:22.256Z,50.70
2019-05-14T13:59:53.228Z,51.60
2019-05-14T14:02:28.033Z,51.20
2019-05-14T14:04:58.942Z,51.60
2019-05-14T14:07:32.809Z,52.30
2019-05-14T14:20:12.793Z,51.40
2019-05-14T14:22:44.508Z,54.90
2019-05-14T14:25:17.743Z,51.20
2019-05-14T14:27:49.299Z,51.80
2019-05-14T14:30:20.778Z,52.40
2019-05-14T14:32:51.818Z,52.40
2019-05-14T14:35:24.553Z,52.60
2019-05-14T14:37:55.931Z,52.20
2019-05-14T14:40:29.913Z,52.60
2019-05-14T14:43:00.325Z,52.70
2019-05-14T14:45:31.449Z,52.90
2019-05-14T14:48:03.075Z,51.40
2019-05-14T14:50:34.229Z,52.60
2019-05-14T14:53:09.476Z,51.40
2019-05-14T14:55:41.446Z,51.80
2019-05-14T14:58:13.028Z,51.80
2019-05-14T15:00:44.384Z,51.20
2019-05-14T15:03:15.842Z,51.80
2019-05-14T15:05:49.796Z,51.70
2019-05-14T15:10:51.801Z,52.10
